createdAt,value
2018-08-12T00:00:49.369Z,6.37
2018-08-12T00:03:16.416Z,6.03
2018-08-12T00:05:43.464Z,6.05
2018-08-12T00:08:10.612Z,6.00
2018-08-12T00:10:37.763Z,6.12
2018-08-12T00:13:04.816Z,6.00
2018-08-12T00:18:13.213Z,6.70
2018-08-12T00:20:40.191Z,6.00
2018-08-12T00:23:07.340Z,6.72
2018-08-12T00:25:34.491Z,6.25
2018-08-12T00:28:01.544Z,6.62
2018-08-12T00:30:28.589Z,6.07
2018-08-12T00:32:55.639Z,6.25
2018-08-12T00:35:22.789Z,6.28
2018-08-12T00:37:49.842Z,6.60
2018-08-12T00:40:16.885Z,6.93
2018-08-12T00:42:43.939Z,6.50
2018-08-12T00:45:10.989Z,6.45
2018-08-12T00:47:38.035Z,6.28
2018-08-12T00:50:05.081Z,6.90
2018-08-12T00:52:32.137Z,7.10
2018-08-12T00:54:59.178Z,7.20
2018-08-12T00:57:26.226Z,7.45
2018-08-12T00:59:53.237Z,7.12
2018-08-12T01:02:21.050Z,7.53
2018-08-12T01:04:48.089Z,6.75
2018-08-12T01:07:15.139Z,6.90
2018-08-12T01:09:42.499Z,6.87
2018-08-12T01:12:09.542Z,6.25
2018-08-12T01:14:36.591Z,7.00
2018-08-12T01:17:03.644Z,6.43
2018-08-12T01:19:30.893Z,6.22
2018-08-12T01:22:00.423Z,7.25
2018-08-12T01:24:27.447Z,6.93
2018-08-12T01:26:54.498Z,7.25
2018-08-12T01:29:22.365Z,7.20
2018-08-12T01:31:49.414Z,7.53
2018-08-12T01:34:16.469Z,6.55
2018-08-12T01:36:43.518Z,6.60
2018-08-12T01:39:10.559Z,7.00
2018-08-12T01:41:38.016Z,6.40
2018-08-12T01:44:05.074Z,6.62
2018-08-12T01:46:32.114Z,7.10
2018-08-12T01:48:59.164Z,7.30
2018-08-12T01:51:26.217Z,6.50
2018-08-12T01:53:53.234Z,6.85
2018-08-12T01:56:20.309Z,6.80
2018-08-12T01:58:47.364Z,6.93
2018-08-12T02:01:14.883Z,6.82
2018-08-12T02:03:41.972Z,6.45
2018-08-12T02:06:09.016Z,6.72
2018-08-12T02:08:36.063Z,6.40
2018-08-12T02:11:03.118Z,6.55
2018-08-12T02:13:30.270Z,6.43
2018-08-12T02:15:57.312Z,6.07
2018-08-12T02:18:25.384Z,6.47
2018-08-12T02:20:52.434Z,6.90
2018-08-12T02:23:20.813Z,6.20
2018-08-12T02:25:47.868Z,7.05
2018-08-12T02:28:14.912Z,7.00
2018-08-12T02:30:41.959Z,6.25
2018-08-12T02:33:09.014Z,7.35
2018-08-12T02:35:36.057Z,6.72
2018-08-12T02:38:03.106Z,6.78
2018-08-12T02:40:30.258Z,6.40
2018-08-12T02:42:57.310Z,6.05
2018-08-12T02:45:24.355Z,6.45
2018-08-12T02:47:51.482Z,6.78
2018-08-12T02:50:18.553Z,6.55
2018-08-12T02:52:45.608Z,6.20
2018-08-12T02:55:13.577Z,6.35
2018-08-12T02:57:40.627Z,7.03
2018-08-12T03:00:07.777Z,6.47
2018-08-12T03:02:35.645Z,7.40
2018-08-12T03:05:02.689Z,6.18
2018-08-12T03:07:29.745Z,6.85
2018-08-12T03:09:57.517Z,6.30
2018-08-12T03:12:24.551Z,5.70
2018-08-12T03:15:05.598Z,6.18
2018-08-12T03:17:49.199Z,6.20
2018-08-12T03:20:16.218Z,6.20
2018-08-12T03:22:43.261Z,6.65
2018-08-12T03:25:10.313Z,6.50
2018-08-12T03:27:37.363Z,6.15
2018-08-12T03:30:04.452Z,6.50
2018-08-12T03:32:31.973Z,6.70
2018-08-12T03:34:59.016Z,6.28
2018-08-12T03:37:26.066Z,6.40
2018-08-12T03:39:53.122Z,6.05
2018-08-12T03:42:20.162Z,6.37
2018-08-12T03:44:47.210Z,6.70
2018-08-12T03:47:14.361Z,6.53
2018-08-12T03:49:41.416Z,6.47
2018-08-12T03:52:08.464Z,6.55
2018-08-12T03:54:35.507Z,6.65
2018-08-12T03:57:22.901Z,6.90
2018-08-12T03:59:50.394Z,6.95
2018-08-12T04:02:17.498Z,6.68
2018-08-12T04:04:44.597Z,7.10
2018-08-12T04:07:11.641Z,6.68
2018-08-12T04:09:38.690Z,6.93
2018-08-12T04:12:05.743Z,7.00
2018-08-12T04:14:32.789Z,6.90
2018-08-12T04:16:59.835Z,6.68
2018-08-12T04:19:26.890Z,7.30
2018-08-12T04:21:53.933Z,6.65
2018-08-12T04:24:20.981Z,6.25
2018-08-12T04:26:48.036Z,6.60
2018-08-12T04:29:15.078Z,6.68
2018-08-12T04:31:42.230Z,6.43
2018-08-12T04:34:09.277Z,6.07
2018-08-12T04:36:37.351Z,6.93
2018-08-12T04:39:04.502Z,6.50
2018-08-12T04:41:31.556Z,6.50
2018-08-12T04:43:58.908Z,6.07
2018-08-12T04:46:25.956Z,6.40
2018-08-12T04:48:53.009Z,6.45
2018-08-12T04:51:20.232Z,6.40
2018-08-12T04:53:47.310Z,5.93
2018-08-12T04:56:14.355Z,6.07
2018-08-12T04:58:41.710Z,6.28
2018-08-12T05:01:08.763Z,6.65
2018-08-12T05:03:35.815Z,6.12
2018-08-12T05:06:03.272Z,6.35
2018-08-12T05:08:30.316Z,6.62
2018-08-12T05:10:57.369Z,5.75
2018-08-12T05:13:24.926Z,6.10
2018-08-12T05:15:51.978Z,5.68
2018-08-12T05:18:24.966Z,6.30
2018-08-12T05:20:52.008Z,5.60
2018-08-12T05:23:19.058Z,5.50
2018-08-12T05:28:19.301Z,5.50
2018-08-12T05:30:46.346Z,5.87
2018-08-12T05:33:13.365Z,5.22
2018-08-12T05:35:40.445Z,5.57
2018-08-12T05:38:07.903Z,5.28
2018-08-12T05:40:34.951Z,5.25
2018-08-12T05:43:02.820Z,5.53
2018-08-12T05:45:29.869Z,5.43
2018-08-12T05:47:56.925Z,5.00
2018-08-12T05:50:23.967Z,5.18
2018-08-12T05:52:51.016Z,6.10
2018-08-12T05:55:18.169Z,6.03
2018-08-12T05:57:45.235Z,5.95
2018-08-12T06:00:12.263Z,6.35
2018-08-12T06:02:39.366Z,6.43
2018-08-12T06:05:06.467Z,6.87
2018-08-12T06:07:33.614Z,6.10
2018-08-12T06:10:00.668Z,6.05
2018-08-12T06:12:27.709Z,5.50
2018-08-12T06:14:54.758Z,5.15
2018-08-12T06:17:21.854Z,4.72
2018-08-12T06:19:48.856Z,4.72
2018-08-12T06:22:16.008Z,4.62
2018-08-12T06:24:43.055Z,4.50
2018-08-12T06:27:10.108Z,4.00
2018-08-12T06:29:37.153Z,3.97
2018-08-12T06:32:04.201Z,4.00
2018-08-12T06:34:31.334Z,3.90
2018-08-12T06:37:04.201Z,4.18
2018-08-12T06:39:31.288Z,4.20
2018-08-12T06:41:58.336Z,3.37
2018-08-12T06:44:26.312Z,3.75
2018-08-12T06:46:53.375Z,3.70
2018-08-12T06:49:21.323Z,3.50
2018-08-12T06:51:48.452Z,3.50
2018-08-12T06:54:15.594Z,3.03
2018-08-12T06:56:42.681Z,3.25
2018-08-12T06:59:09.790Z,2.87
2018-08-12T07:01:37.455Z,3.10
2018-08-12T07:04:04.537Z,2.80
2018-08-12T07:06:31.591Z,2.87
2018-08-12T07:08:58.635Z,3.00
2018-08-12T07:11:25.684Z,2.53
2018-08-12T07:13:52.834Z,2.83
2018-08-12T07:16:19.888Z,3.12
2018-08-12T07:18:47.443Z,2.80
2018-08-12T07:21:14.497Z,2.78
2018-08-12T07:23:42.666Z,2.97
2018-08-12T07:26:09.720Z,2.97
2018-08-12T07:28:36.765Z,2.58
2018-08-12T07:31:03.812Z,2.90
2018-08-12T07:33:30.867Z,2.90
2018-08-12T07:35:57.909Z,2.80
2018-08-12T07:38:25.223Z,3.08
2018-08-12T07:40:52.825Z,2.62
2018-08-12T07:43:19.984Z,2.70
2018-08-12T07:45:47.026Z,2.58
2018-08-12T07:48:14.080Z,2.60
2018-08-12T07:50:41.126Z,3.03
2018-08-12T07:53:08.172Z,2.58
2018-08-12T07:55:35.266Z,2.70
2018-08-12T07:58:02.377Z,2.65
2018-08-12T08:00:29.430Z,3.55
2018-08-12T08:02:56.469Z,2.80
2018-08-12T08:05:24.412Z,2.72
2018-08-12T08:07:51.692Z,2.60
2018-08-12T08:10:18.845Z,2.83
2018-08-12T08:15:36.483Z,3.03
2018-08-12T08:18:04.174Z,2.95
2018-08-12T08:20:31.313Z,2.90
2018-08-12T08:22:58.356Z,2.95
2018-08-12T08:25:26.669Z,3.30
2018-08-12T08:27:54.706Z,2.80
2018-08-12T08:30:22.950Z,3.00
2018-08-12T08:35:30.393Z,2.60
2018-08-12T08:37:57.479Z,3.37
2018-08-12T08:40:24.696Z,2.75
2018-08-12T08:42:52.768Z,2.87
2018-08-12T08:45:20.029Z,3.30
2018-08-12T08:47:47.072Z,3.00
2018-08-12T08:50:14.124Z,3.10
2018-08-12T08:52:41.176Z,2.80
2018-08-12T08:55:13.453Z,3.33
2018-08-12T08:57:44.586Z,3.05
2018-08-12T09:02:57.121Z,3.12
2018-08-12T09:05:25.287Z,3.15
2018-08-12T09:10:29.131Z,3.28
2018-08-12T09:15:31.811Z,3.20
2018-08-12T09:17:58.962Z,3.33
2018-08-12T09:20:26.010Z,3.62
2018-08-12T09:22:53.064Z,3.60
2018-08-12T09:25:20.106Z,3.47
2018-08-12T09:27:47.158Z,3.53
2018-08-12T09:30:14.212Z,3.78
2018-08-12T09:32:41.253Z,3.90
2018-08-12T09:35:09.298Z,3.60
2018-08-12T09:37:36.584Z,4.12
2018-08-12T09:42:49.210Z,3.97
2018-08-12T09:51:01.263Z,3.80
2018-08-12T09:59:02.947Z,3.95
2018-08-12T10:01:31.327Z,4.20
2018-08-12T10:03:58.476Z,3.95
2018-08-12T10:06:25.530Z,3.67
2018-08-12T10:08:53.672Z,4.20
2018-08-12T10:11:20.754Z,4.00
2018-08-12T10:13:47.798Z,4.20
2018-08-12T10:16:16.178Z,5.30
2018-08-12T10:19:10.168Z,4.57
2018-08-12T10:21:38.400Z,4.30
2018-08-12T10:24:05.386Z,4.47
2018-08-12T10:26:32.431Z,4.35
2018-08-12T10:29:01.118Z,4.15
2018-08-12T10:31:28.268Z,4.50
2018-08-12T10:33:56.449Z,4.60
2018-08-12T10:36:23.560Z,4.90
2018-08-12T10:38:50.750Z,4.22
2018-08-12T10:41:17.793Z,4.47
2018-08-12T10:43:44.842Z,4.35
2018-08-12T10:46:11.895Z,4.80
2018-08-12T10:48:38.937Z,4.43
2018-08-12T10:51:05.990Z,4.72
2018-08-12T10:53:33.139Z,4.62
2018-08-12T10:56:00.596Z,4.90
2018-08-12T10:58:27.651Z,4.47
2018-08-12T11:00:54.800Z,4.70
2018-08-12T11:03:21.951Z,4.65
2018-08-12T11:05:50.222Z,4.60
2018-08-12T11:08:17.375Z,4.80
2018-08-12T11:10:44.633Z,4.90
2018-08-12T11:13:11.640Z,4.35
2018-08-12T11:15:38.690Z,4.50
2018-08-12T11:18:05.706Z,4.53
2018-08-12T11:20:32.849Z,4.57
2018-08-12T11:22:59.836Z,4.60
2018-08-12T11:25:26.877Z,4.85
2018-08-12T11:27:53.926Z,4.62
2018-08-12T11:30:21.692Z,4.30
2018-08-12T11:32:49.052Z,4.72
2018-08-12T11:35:16.204Z,4.93
2018-08-12T11:37:43.758Z,4.82
2018-08-12T11:40:11.936Z,4.60
2018-08-12T11:42:40.114Z,4.50
2018-08-12T11:45:07.126Z,5.12
2018-08-12T11:47:34.276Z,5.10
2018-08-12T11:50:01.880Z,5.12
2018-08-12T11:52:28.915Z,4.57
2018-08-12T11:54:56.682Z,4.95
2018-08-12T11:57:23.734Z,4.68
2018-08-12T11:59:51.597Z,4.80
2018-08-12T12:02:18.802Z,4.80
2018-08-12T12:04:49.080Z,4.95
2018-08-12T12:07:17.990Z,5.03
2018-08-12T12:09:51.415Z,4.68
2018-08-12T12:12:21.155Z,4.80
2018-08-12T12:14:48.226Z,4.32
2018-08-12T12:17:15.397Z,4.90
2018-08-12T12:19:42.429Z,5.10
2018-08-12T12:22:09.472Z,4.70
2018-08-12T12:24:36.521Z,4.80
2018-08-12T12:27:03.573Z,4.82
2018-08-12T12:29:30.618Z,4.70
2018-08-12T12:31:57.666Z,4.87
2018-08-12T12:34:24.720Z,4.80
2018-08-12T12:36:52.177Z,4.78
2018-08-12T12:39:19.222Z,4.65
2018-08-12T12:41:46.268Z,4.78
2018-08-12T12:44:13.322Z,4.80
2018-08-12T12:46:40.366Z,5.00
2018-08-12T12:49:07.623Z,4.80
2018-08-12T12:51:34.669Z,5.15
2018-08-12T12:54:01.818Z,5.10
2018-08-12T12:56:29.780Z,5.20
2018-08-12T12:58:56.802Z,5.00
2018-08-12T13:01:23.885Z,5.00
2018-08-12T13:03:50.933Z,5.18
2018-08-12T13:06:17.953Z,5.15
2018-08-12T13:08:46.771Z,4.95
2018-08-12T13:11:14.023Z,4.93
2018-08-12T13:13:41.071Z,5.03
2018-08-12T13:16:08.092Z,4.60
2018-08-12T13:18:35.276Z,5.10
2018-08-12T13:21:03.444Z,5.10
2018-08-12T13:23:30.498Z,4.78
2018-08-12T13:25:57.541Z,5.40
2018-08-12T13:28:25.001Z,4.87
2018-08-12T13:30:52.765Z,4.95
2018-08-12T13:33:19.918Z,4.80
2018-08-12T13:35:47.175Z,5.20
2018-08-12T13:38:14.324Z,4.93
2018-08-12T13:40:41.369Z,5.28
2018-08-12T13:43:09.440Z,5.53
2018-08-12T13:45:36.489Z,5.72
2018-08-12T13:48:03.543Z,5.37
2018-08-12T13:50:31.199Z,5.20
2018-08-12T13:52:59.170Z,5.50
2018-08-12T13:55:27.961Z,4.97
2018-08-12T13:57:55.108Z,5.35
2018-08-12T14:00:22.158Z,5.40
2018-08-12T14:02:49.330Z,4.93
2018-08-12T14:05:16.464Z,5.10
2018-08-12T14:07:43.515Z,4.70
2018-08-12T14:10:10.560Z,4.97
2018-08-12T14:12:37.623Z,5.45
2018-08-12T14:15:05.065Z,4.75
2018-08-12T14:17:32.320Z,5.15
2018-08-12T14:19:59.364Z,4.80
2018-08-12T14:22:26.420Z,4.57
2018-08-12T14:24:53.460Z,4.68
2018-08-12T14:27:20.509Z,4.68
2018-08-12T14:29:47.562Z,5.00
2018-08-12T14:32:14.711Z,4.53
2018-08-12T14:34:41.964Z,4.72
2018-08-12T14:37:09.016Z,4.78
2018-08-12T14:39:55.177Z,4.85
2018-08-12T14:42:24.264Z,5.07
2018-08-12T14:44:51.456Z,4.95
2018-08-12T14:47:18.507Z,5.03
2018-08-12T14:49:46.886Z,5.32
2018-08-12T14:52:13.902Z,5.20
2018-08-12T14:54:41.026Z,5.30
2018-08-12T14:57:08.127Z,4.93
2018-08-12T14:59:35.184Z,5.53
2018-08-12T15:02:02.226Z,5.30
2018-08-12T15:04:29.244Z,5.35
2018-08-12T15:06:56.326Z,5.50
2018-08-12T15:09:23.478Z,5.68
2018-08-12T15:11:50.523Z,5.75
2018-08-12T15:14:17.671Z,5.53
2018-08-12T15:16:44.720Z,5.28
2018-08-12T15:19:17.052Z,5.43
2018-08-12T15:21:45.071Z,5.57
2018-08-12T15:24:17.442Z,5.45
2018-08-12T15:26:44.962Z,5.60
2018-08-12T15:29:17.445Z,5.70
2018-08-12T15:31:56.894Z,5.85
2018-08-12T15:34:27.182Z,5.70
2018-08-12T15:36:56.658Z,6.00
2018-08-12T15:39:23.694Z,5.95
2018-08-12T15:41:51.043Z,5.22
2018-08-12T15:44:18.918Z,6.03
2018-08-12T15:46:45.960Z,5.22
2018-08-12T15:49:13.109Z,5.65
2018-08-12T15:51:40.260Z,5.65
2018-08-12T15:54:07.309Z,5.00
2018-08-12T15:56:34.417Z,6.03
2018-08-12T15:59:01.513Z,5.75
2018-08-12T16:01:28.664Z,5.80
2018-08-12T16:03:56.057Z,5.90
2018-08-12T16:06:23.273Z,5.72
2018-08-12T16:08:50.835Z,5.70
2018-08-12T16:11:17.979Z,5.95
2018-08-12T16:13:45.034Z,5.87
2018-08-12T16:16:12.273Z,5.90
2018-08-12T16:18:39.846Z,5.80
2018-08-12T16:21:06.889Z,6.00
2018-08-12T16:23:33.913Z,5.80
2018-08-12T16:26:00.959Z,5.95
2018-08-12T16:28:28.137Z,5.85
2018-08-12T16:30:55.184Z,5.80
2018-08-12T16:33:22.238Z,6.00
2018-08-12T16:35:49.280Z,5.80
2018-08-12T16:38:16.738Z,5.87
2018-08-12T16:40:43.791Z,5.57
2018-08-12T16:43:12.685Z,6.20
2018-08-12T16:45:41.798Z,5.35
2018-08-12T16:48:09.136Z,6.43
2018-08-12T16:50:37.068Z,6.07
2018-08-12T16:53:04.152Z,5.70
2018-08-12T16:55:31.203Z,5.60
2018-08-12T16:57:58.249Z,5.85
2018-08-12T17:00:25.299Z,5.87
2018-08-12T17:02:52.450Z,5.68
2018-08-12T17:05:19.475Z,6.50
2018-08-12T17:07:47.573Z,5.57
2018-08-12T17:10:14.728Z,5.80
2018-08-12T17:12:41.772Z,6.32
2018-08-12T17:15:09.058Z,6.30
2018-08-12T17:17:36.179Z,6.50
2018-08-12T17:20:03.331Z,6.22
2018-08-12T17:22:30.478Z,5.97
2018-08-12T17:24:57.520Z,5.78
2018-08-12T17:27:24.569Z,5.60
2018-08-12T17:29:51.623Z,6.10
2018-08-12T17:32:18.665Z,6.03
2018-08-12T17:34:45.672Z,6.25
2018-08-12T17:37:12.866Z,5.95
2018-08-12T17:39:40.017Z,6.28
2018-08-12T17:42:07.166Z,6.30
2018-08-12T17:44:34.222Z,6.28
2018-08-12T17:47:01.372Z,6.15
2018-08-12T17:49:28.415Z,6.72
2018-08-12T17:51:55.464Z,6.47
2018-08-12T17:54:22.516Z,6.70
2018-08-12T17:56:49.561Z,5.97
2018-08-12T17:59:16.682Z,6.55
2018-08-12T18:01:43.759Z,6.82
2018-08-12T18:04:10.910Z,6.47
2018-08-12T18:06:39.176Z,6.82
2018-08-12T18:09:06.237Z,6.80
2018-08-12T18:11:33.388Z,7.15
2018-08-12T18:14:00.436Z,6.47
2018-08-12T18:16:27.490Z,6.43
2018-08-12T18:18:54.531Z,6.32
2018-08-12T18:21:21.581Z,6.30
2018-08-12T18:23:48.634Z,6.50
2018-08-12T18:26:15.913Z,6.45
2018-08-12T18:28:43.340Z,6.57
2018-08-12T18:31:10.395Z,6.62
2018-08-12T18:33:37.438Z,6.43
2018-08-12T18:36:04.488Z,6.03
2018-08-12T18:38:31.540Z,6.60
2018-08-12T18:40:58.584Z,6.75
2018-08-12T18:43:25.741Z,7.32
2018-08-12T18:45:52.885Z,7.35
2018-08-12T18:48:20.450Z,7.50
2018-08-12T18:50:47.602Z,7.25
2018-08-12T18:53:14.752Z,7.03
2018-08-12T18:55:42.212Z,7.37
2018-08-12T18:58:09.254Z,7.65
2018-08-12T19:00:36.304Z,7.18
2018-08-12T19:03:03.556Z,6.70
2018-08-12T19:05:30.814Z,7.05
2018-08-12T19:07:57.861Z,7.22
2018-08-12T19:10:27.364Z,7.75
2018-08-12T19:12:54.421Z,7.72
2018-08-12T19:15:21.460Z,8.43
2018-08-12T19:17:49.187Z,8.10
2018-08-12T19:20:16.378Z,8.30
2018-08-12T19:22:43.426Z,7.93
2018-08-12T19:25:10.486Z,7.70
2018-08-12T19:27:37.524Z,8.75
2018-08-12T19:30:04.573Z,8.80
2018-08-12T19:32:31.826Z,9.25
2018-08-12T19:34:58.874Z,8.45
2018-08-12T19:37:26.030Z,10.32
2018-08-12T19:39:53.485Z,9.80
2018-08-12T19:42:20.635Z,9.68
2018-08-12T19:44:47.786Z,9.20
2018-08-12T19:47:14.841Z,8.77
2018-08-12T19:49:41.990Z,9.15
2018-08-12T19:52:09.035Z,9.23
2018-08-12T19:54:36.087Z,9.63
2018-08-12T19:57:03.139Z,9.00
2018-08-12T19:59:30.186Z,9.63
2018-08-12T20:01:57.230Z,9.02
2018-08-12T20:04:24.284Z,8.75
2018-08-12T20:06:51.329Z,9.27
2018-08-12T20:09:18.373Z,9.20
2018-08-12T20:11:45.487Z,8.23
2018-08-12T20:14:12.469Z,8.98
2018-08-12T20:16:39.520Z,8.88
2018-08-12T20:19:06.671Z,8.95
2018-08-12T20:21:34.201Z,9.02
2018-08-12T20:24:01.281Z,9.15
2018-08-12T20:26:28.338Z,10.77
2018-08-12T20:28:55.377Z,10.00
2018-08-12T20:31:22.426Z,9.80
2018-08-12T20:33:49.480Z,9.68
2018-08-12T20:36:16.524Z,8.98
2018-08-12T20:38:43.569Z,8.25
2018-08-12T20:41:10.827Z,9.20
2018-08-12T20:43:37.874Z,9.95
2018-08-12T20:46:04.928Z,9.50
2018-08-12T20:48:32.789Z,9.48
2018-08-12T20:50:59.842Z,10.10
2018-08-12T20:53:26.886Z,9.20
2018-08-12T20:55:54.244Z,9.60
2018-08-12T20:58:21.295Z,11.02
2018-08-12T21:00:48.340Z,10.20
2018-08-12T21:03:15.389Z,9.93
2018-08-12T21:05:42.542Z,9.30
2018-08-12T21:08:09.592Z,9.50
2018-08-12T21:10:36.637Z,10.60
2018-08-12T21:13:03.686Z,10.77
2018-08-12T21:15:30.739Z,9.70
2018-08-12T21:17:57.784Z,10.93
2018-08-12T21:20:24.831Z,10.48
2018-08-12T21:22:53.092Z,11.20
2018-08-12T21:25:20.157Z,10.00
2018-08-12T21:27:51.083Z,10.75
2018-08-12T21:30:20.075Z,10.02
2018-08-12T21:32:47.140Z,9.50
2018-08-12T21:35:14.906Z,10.13
2018-08-12T21:37:42.057Z,10.52
2018-08-12T21:40:09.074Z,10.55
2018-08-12T21:42:36.256Z,10.75
2018-08-12T21:45:03.622Z,11.48
2018-08-12T21:47:30.659Z,10.85
2018-08-12T21:49:57.683Z,10.38
2018-08-12T21:52:24.656Z,10.80
2018-08-12T21:54:51.669Z,10.50
2018-08-12T21:57:18.758Z,10.65
2018-08-12T21:59:45.801Z,11.20
2018-08-12T22:02:12.849Z,10.07
2018-08-12T22:04:40.000Z,10.48
2018-08-12T22:07:07.227Z,10.65
2018-08-12T22:09:35.327Z,9.88
2018-08-12T22:12:02.634Z,11.27
2018-08-12T22:14:29.737Z,10.50
2018-08-12T22:16:57.058Z,10.23
2018-08-12T22:19:24.136Z,9.70
2018-08-12T22:21:51.190Z,11.05
2018-08-12T22:24:27.319Z,10.10
2018-08-12T22:26:54.363Z,10.70
2018-08-12T22:29:21.414Z,10.60
2018-08-12T22:31:48.496Z,9.23
2018-08-12T22:34:15.547Z,9.48
2018-08-12T22:36:42.589Z,8.88
2018-08-12T22:39:10.354Z,8.73
2018-08-12T22:41:38.509Z,10.80
2018-08-12T22:44:05.580Z,9.70
2018-08-12T22:46:33.549Z,13.10
2018-08-12T22:49:01.009Z,10.90
2018-08-12T22:51:28.066Z,11.95
2018-08-12T22:53:55.109Z,10.43
2018-08-12T22:56:22.154Z,10.70
2018-08-12T22:58:49.208Z,11.38
2018-08-12T23:01:16.359Z,13.45
2018-08-12T23:03:43.402Z,14.87
2018-08-12T23:06:10.450Z,12.75
2018-08-12T23:08:37.507Z,14.48
2018-08-12T23:11:04.548Z,14.02
2018-08-12T23:13:31.599Z,13.38
2018-08-12T23:16:19.540Z,12.07
2018-08-12T23:18:46.581Z,13.82
2018-08-12T23:21:13.631Z,13.25
2018-08-12T23:23:40.784Z,13.00
2018-08-12T23:26:08.036Z,13.55
2018-08-12T23:28:35.085Z,15.07
2018-08-12T23:31:02.138Z,14.25
2018-08-12T23:33:29.182Z,13.75
2018-08-12T23:35:56.231Z,13.48
2018-08-12T23:38:23.288Z,12.05
2018-08-12T23:40:50.436Z,13.95
2018-08-12T23:43:17.479Z,13.38
2018-08-12T23:45:44.530Z,14.13
2018-08-12T23:48:11.582Z,14.38
2018-08-12T23:50:38.625Z,13.25
2018-08-12T23:53:05.981Z,15.75
2018-08-12T23:55:33.036Z,15.70
2018-08-12T23:58:00.078Z,15.27
